sensor_id;sensor_type;location;lat;lon;timestamp;pressure;altitude;pressure_sealevel;temperature;humidity
70544;BME280;58097;48.364;-1.224;2023-10-31T00:00:05;98030.63;;;10.78;100.00
70544;BME280;58097;48.364;-1.224;2023-10-31T00:02:31;98033.59;;;10.77;100.00
70544;BME280;58097;48.364;-1.224;2023-10-31T00:04:56;98038.94;;;10.78;100.00
70544;BME280;58097;48.364;-1.224;2023-10-31T00:07:22;98037.22;;;10.77;100.00
70544;BME280;58097;48.364;-1.224;2023-10-31T00:09:47;98037.88;;;10.79;100.00
70544;BME280;58097;48.364;-1.224;2023-10-31T00:12:12;98042.97;;;10.82;100.00
70544;BME280;58097;48.364;-1.224;2023-10-31T00:14:39;98037.22;;;10.84;100.00
70544;BME280;58097;48.364;-1.224;2023-10-31T00:17:04;98038.28;;;10.83;100.00
70544;BME280;58097;48.364;-1.224;2023-10-31T00:19:30;98035.53;;;10.83;100.00
70544;BME280;58097;48.364;-1.224;2023-10-31T00:21:55;98040.22;;;10.82;100.00
70544;BME280;58097;48.364;-1.224;2023-10-31T00:24:20;98044.25;;;10.86;100.00
70544;BME280;58097;48.364;-1.224;2023-10-31T00:26:46;98044.25;;;10.86;100.00
70544;BME280;58097;48.364;-1.224;2023-10-31T00:29:11;98048.06;;;10.85;100.00
70544;BME280;58097;48.364;-1.224;2023-10-31T00:31:36;98039.56;;;10.87;100.00
70544;BME280;58097;48.364;-1.224;2023-10-31T00:34:06;98047.00;;;10.86;100.00
70544;BME280;58097;48.364;-1.224;2023-10-31T00:36:31;98038.72;;;10.86;100.00
70544;BME280;58097;48.364;-1.224;2023-10-31T00:38:57;98051.47;;;10.88;100.00
70544;BME280;58097;48.364;-1.224;2023-10-31T00:41:22;98052.53;;;10.86;100.00
70544;BME280;58097;48.364;-1.224;2023-10-31T00:43:47;98051.69;;;10.86;100.00
70544;BME280;58097;48.364;-1.224;2023-10-31T00:46:13;98049.13;;;10.84;100.00
70544;BME280;58097;48.364;-1.224;2023-10-31T00:48:38;98041.91;;;10.83;100.00
70544;BME280;58097;48.364;-1.224;2023-10-31T00:51:04;98049.75;;;10.80;100.00
70544;BME280;58097;48.364;-1.224;2023-10-31T00:53:30;98048.28;;;10.77;100.00
70544;BME280;58097;48.364;-1.224;2023-10-31T00:55:55;98053.16;;;10.75;100.00
70544;BME280;58097;48.364;-1.224;2023-10-31T00:58:20;98053.38;;;10.74;100.00
70544;BME280;58097;48.364;-1.224;2023-10-31T01:00:46;98054.44;;;10.73;100.00
70544;BME280;58097;48.364;-1.224;2023-10-31T01:03:11;98053.56;;;10.72;100.00
70544;BME280;58097;48.364;-1.224;2023-10-31T01:05:36;98051.03;;;10.71;100.00
70544;BME280;58097;48.364;-1.224;2023-10-31T01:08:02;98056.72;;;10.69;100.00
70544;BME280;58097;48.364;-1.224;2023-10-31T01:10:27;98065.00;;;10.69;100.00
70544;BME280;58097;48.364;-1.224;2023-10-31T01:12:53;98055.22;;;10.67;100.00
70544;BME280;58097;48.364;-1.224;2023-10-31T01:15:18;98068.19;;;10.66;100.00
70544;BME280;58097;48.364;-1.224;2023-10-31T01:17:43;98069.25;;;10.65;100.00
70544;BME280;58097;48.364;-1.224;2023-10-31T01:20:09;98066.06;;;10.62;100.00
70544;BME280;58097;48.364;-1.224;2023-10-31T01:22:36;98069.88;;;10.61;100.00
70544;BME280;58097;48.364;-1.224;2023-10-31T01:25:02;98069.88;;;10.61;100.00
70544;BME280;58097;48.364;-1.224;2023-10-31T01:27:27;98074.97;;;10.64;100.00
70544;BME280;58097;48.364;-1.224;2023-10-31T01:29:52;98074.78;;;10.65;100.00
70544;BME280;58097;48.364;-1.224;2023-10-31T01:32:18;98076.06;;;10.69;100.00
70544;BME280;58097;48.364;-1.224;2023-10-31T01:34:43;98073.97;;;10.71;100.00
70544;BME280;58097;48.364;-1.224;2023-10-31T01:37:09;98083.75;;;10.74;100.00
70544;BME280;58097;48.364;-1.224;2023-10-31T01:39:36;98086.31;;;10.75;100.00
70544;BME280;58097;48.364;-1.224;2023-10-31T01:42:01;98092.69;;;10.76;100.00
70544;BME280;58097;48.364;-1.224;2023-10-31T01:44:27;98090.97;;;10.75;100.00
70544;BME280;58097;48.364;-1.224;2023-10-31T01:46:52;98091.84;;;10.75;100.00
70544;BME280;58097;48.364;-1.224;2023-10-31T01:49:17;98102.03;;;10.75;100.00
70544;BME280;58097;48.364;-1.224;2023-10-31T01:51:44;98095.66;;;10.74;100.00
70544;BME280;58097;48.364;-1.224;2023-10-31T01:54:10;98095.88;;;10.73;100.00
70544;BME280;58097;48.364;-1.224;2023-10-31T01:56:36;98106.50;;;10.76;100.00
70544;BME280;58097;48.364;-1.224;2023-10-31T01:59:01;98099.91;;;10.70;100.00
70544;BME280;58097;48.364;-1.224;2023-10-31T02:01:27;98101.81;;;10.76;100.00
70544;BME280;58097;48.364;-1.224;2023-10-31T02:03:53;98108.63;;;10.80;100.00
70544;BME280;58097;48.364;-1.224;2023-10-31T02:06:18;98104.16;;;10.79;100.00
70544;BME280;58097;48.364;-1.224;2023-10-31T02:08:44;98102.88;;;10.75;100.00
70544;BME280;58097;48.364;-1.224;2023-10-31T02:11:12;98111.38;;;10.74;100.00
70544;BME280;58097;48.364;-1.224;2023-10-31T02:13:37;98107.56;;;10.75;100.00
70544;BME280;58097;48.364;-1.224;2023-10-31T02:16:03;98115.63;;;10.70;100.00
70544;BME280;58097;48.364;-1.224;2023-10-31T02:18:28;98114.72;;;10.69;100.00
70544;BME280;58097;48.364;-1.224;2023-10-31T02:20:54;98122.00;;;10.70;100.00
70544;BME280;58097;48.364;-1.224;2023-10-31T02:23:19;98117.13;;;10.72;100.00
70544;BME280;58097;48.364;-1.224;2023-10-31T02:25:45;98123.50;;;10.73;100.00
70544;BME280;58097;48.364;-1.224;2023-10-31T02:28:10;98125.19;;;10.74;100.00
70544;BME280;58097;48.364;-1.224;2023-10-31T02:30:35;98137.75;;;10.76;100.00
70544;BME280;58097;48.364;-1.224;2023-10-31T02:33:01;98137.94;;;10.75;100.00
70544;BME280;58097;48.364;-1.224;2023-10-31T02:35:27;98132.19;;;10.70;100.00
70544;BME280;58097;48.364;-1.224;2023-10-31T02:37:53;98140.00;;;10.66;100.00
70544;BME280;58097;48.364;-1.224;2023-10-31T02:40:18;98135.53;;;10.65;100.00
70544;BME280;58097;48.364;-1.224;2023-10-31T02:42:44;98149.97;;;10.61;100.00
70544;BME280;58097;48.364;-1.224;2023-10-31T02:45:09;98139.97;;;10.60;100.00
70544;BME280;58097;48.364;-1.224;2023-10-31T02:47:35;98147.22;;;10.61;100.00
70544;BME280;58097;48.364;-1.224;2023-10-31T02:50:00;98143.19;;;10.63;100.00
70544;BME280;58097;48.364;-1.224;2023-10-31T02:52:26;98139.13;;;10.59;100.00
70544;BME280;58097;48.364;-1.224;2023-10-31T02:54:51;98140.19;;;10.58;100.00
70544;BME280;58097;48.364;-1.224;2023-10-31T02:57:16;98153.59;;;10.61;100.00
70544;BME280;58097;48.364;-1.224;2023-10-31T02:59:42;98149.13;;;10.60;100.00
70544;BME280;58097;48.364;-1.224;2023-10-31T03:02:08;98152.94;;;10.59;100.00
70544;BME280;58097;48.364;-1.224;2023-10-31T03:04:33;98153.78;;;10.60;100.00
70544;BME280;58097;48.364;-1.224;2023-10-31T03:06:58;98158.47;;;10.59;100.00
70544;BME280;58097;48.364;-1.224;2023-10-31T03:09:24;98157.81;;;10.57;100.00
70544;BME280;58097;48.364;-1.224;2023-10-31T03:11:49;98167.16;;;10.56;100.00
70544;BME280;58097;48.364;-1.224;2023-10-31T03:14:14;98163.50;;;10.49;100.00
70544;BME280;58097;48.364;-1.224;2023-10-31T03:16:40;98172.44;;;10.51;100.00
70544;BME280;58097;48.364;-1.224;2023-10-31T03:19:05;98167.34;;;10.48;100.00
70544;BME280;58097;48.364;-1.224;2023-10-31T03:21:31;98178.16;;;10.49;100.00
70544;BME280;58097;48.364;-1.224;2023-10-31T03:23:57;98178.38;;;10.48;100.00
70544;BME280;58097;48.364;-1.224;2023-10-31T03:26:22;98185.81;;;10.47;100.00
70544;BME280;58097;48.364;-1.224;2023-10-31T03:28:48;98185.59;;;10.49;100.00
70544;BME280;58097;48.364;-1.224;2023-10-31T03:31:14;98192.84;;;10.50;100.00
70544;BME280;58097;48.364;-1.224;2023-10-31T03:33:40;98190.06;;;10.50;100.00
70544;BME280;58097;48.364;-1.224;2023-10-31T03:36:06;98186.88;;;10.46;100.00
70544;BME280;58097;48.364;-1.224;2023-10-31T03:38:32;98195.34;;;10.45;100.00
70544;BME280;58097;48.364;-1.224;2023-10-31T03:40:57;98194.31;;;10.46;100.00
70544;BME280;58097;48.364;-1.224;2023-10-31T03:43:22;98200.47;;;10.48;100.00
70544;BME280;58097;48.364;-1.224;2023-10-31T03:45:48;98200.69;;;10.46;100.00
70544;BME280;58097;48.364;-1.224;2023-10-31T03:48:15;98209.41;;;10.50;100.00
70544;BME280;58097;48.364;-1.224;2023-10-31T03:50:41;98205.13;;;10.47;100.00
70544;BME280;58097;48.364;-1.224;2023-10-31T03:53:06;98213.03;;;10.50;100.00
70544;BME280;58097;48.364;-1.224;2023-10-31T03:55:31;98212.56;;;10.47;100.00
70544;BME280;58097;48.364;-1.224;2023-10-31T03:57:57;98223.22;;;10.50;100.00
70544;BME280;58097;48.364;-1.224;2023-10-31T04:00:22;98220.84;;;10.47;100.00
70544;BME280;58097;48.364;-1.224;2023-10-31T04:02:48;98221.72;;;10.47;100.00
70544;BME280;58097;48.364;-1.224;2023-10-31T04:05:13;98226.38;;;10.47;100.00
70544;BME280;58097;48.364;-1.224;2023-10-31T04:07:39;98237.44;;;10.47;100.00
70544;BME280;58097;48.364;-1.224;2023-10-31T04:10:04;98242.09;;;10.46;100.00
70544;BME280;58097;48.364;-1.224;2023-10-31T04:12:30;98248.88;;;10.44;100.00
70544;BME280;58097;48.364;-1.224;2023-10-31T04:14:56;98246.53;;;10.41;100.00
70544;BME280;58097;48.364;-1.224;2023-10-31T04:17:22;98247.16;;;10.43;100.00
70544;BME280;58097;48.364;-1.224;2023-10-31T04:19:47;98247.16;;;10.43;100.00
70544;BME280;58097;48.364;-1.224;2023-10-31T04:22:12;98260.13;;;10.42;100.00
70544;BME280;58097;48.364;-1.224;2023-10-31T04:24:38;98270.31;;;10.42;100.00
70544;BME280;58097;48.364;-1.224;2023-10-31T04:27:03;98273.94;;;10.42;100.00
70544;BME280;58097;48.364;-1.224;2023-10-31T04:29:28;98276.22;;;10.39;100.00
70544;BME280;58097;48.364;-1.224;2023-10-31T04:31:54;98286.41;;;10.38;100.00
70544;BME280;58097;48.364;-1.224;2023-10-31T04:34:19;98281.94;;;10.37;100.00
70544;BME280;58097;48.364;-1.224;2023-10-31T04:36:44;98285.56;;;10.38;100.00
70544;BME280;58097;48.364;-1.224;2023-10-31T04:39:10;98285.56;;;10.38;100.00
70544;BME280;58097;48.364;-1.224;2023-10-31T04:41:35;98285.75;;;10.36;100.00
70544;BME280;58097;48.364;-1.224;2023-10-31T04:44:01;98285.09;;;10.34;100.00
70544;BME280;58097;48.364;-1.224;2023-10-31T04:46:26;98290.81;;;10.33;100.00
70544;BME280;58097;48.364;-1.224;2023-10-31T04:48:54;98291.03;;;10.31;100.00
70544;BME280;58097;48.364;-1.224;2023-10-31T04:51:20;98298.19;;;10.26;100.00
70544;BME280;58097;48.364;-1.224;2023-10-31T04:53:45;98304.56;;;10.26;100.00
70544;BME280;58097;48.364;-1.224;2023-10-31T04:56:14;98305.22;;;10.28;100.00
70544;BME280;58097;48.364;-1.224;2023-10-31T04:58:43;98310.00;;;10.19;100.00
70544;BME280;58097;48.364;-1.224;2023-10-31T05:01:13;98310.88;;;10.20;100.00
70544;BME280;58097;48.364;-1.224;2023-10-31T05:03:38;98314.31;;;10.22;100.00
70544;BME280;58097;48.364;-1.224;2023-10-31T05:06:05;98312.59;;;10.21;100.00
70544;BME280;58097;48.364;-1.224;2023-10-31T05:08:30;98312.41;;;10.22;100.00
70544;BME280;58097;48.364;-1.224;2023-10-31T05:10:57;98319.34;;;10.18;100.00
70544;BME280;58097;48.364;-1.224;2023-10-31T05:13:22;98324.22;;;10.16;100.00
70544;BME280;58097;48.364;-1.224;2023-10-31T05:15:48;98323.56;;;10.14;100.00
70544;BME280;58097;48.364;-1.224;2023-10-31T05:18:13;98329.06;;;10.14;100.00
70544;BME280;58097;48.364;-1.224;2023-10-31T05:20:38;98332.69;;;10.15;100.00
70544;BME280;58097;48.364;-1.224;2023-10-31T05:23:04;98337.72;;;10.11;100.00
70544;BME280;58097;48.364;-1.224;2023-10-31T05:25:29;98344.69;;;10.07;100.00
70544;BME280;58097;48.364;-1.224;2023-10-31T05:27:55;98342.78;;;10.08;100.00
70544;BME280;58097;48.364;-1.224;2023-10-31T05:30:20;98340.22;;;10.06;100.00
70544;BME280;58097;48.364;-1.224;2023-10-31T05:32:46;98352.97;;;10.07;100.00
70544;BME280;58097;48.364;-1.224;2023-10-31T05:35:12;98352.75;;;10.09;100.00
70544;BME280;58097;48.364;-1.224;2023-10-31T05:37:37;98352.50;;;10.04;100.00
70544;BME280;58097;48.364;-1.224;2023-10-31T05:40:02;98358.41;;;10.01;100.00
70544;BME280;58097;48.364;-1.224;2023-10-31T05:42:28;98360.53;;;9.99;100.00
70544;BME280;58097;48.364;-1.224;2023-10-31T05:44:54;98370.50;;;10.00;100.00
70544;BME280;58097;48.364;-1.224;2023-10-31T05:47:19;98368.34;;;9.95;100.00
70544;BME280;58097;48.364;-1.224;2023-10-31T05:49:46;98373.00;;;9.94;100.00
70544;BME280;58097;48.364;-1.224;2023-10-31T05:52:11;98374.50;;;9.97;100.00
70544;BME280;58097;48.364;-1.224;2023-10-31T05:54:37;98366.63;;;9.94;100.00
70544;BME280;58097;48.364;-1.224;2023-10-31T05:57:02;98378.72;;;9.93;100.00
70544;BME280;58097;48.364;-1.224;2023-10-31T05:59:27;98378.53;;;9.94;100.00
70544;BME280;58097;48.364;-1.224;2023-10-31T06:01:53;98377.22;;;9.90;100.00
70544;BME280;58097;48.364;-1.224;2023-10-31T06:04:18;98379.97;;;9.90;100.00
70544;BME280;58097;48.364;-1.224;2023-10-31T06:06:43;98383.13;;;9.87;100.00
70544;BME280;58097;48.364;-1.224;2023-10-31T06:09:09;98385.88;;;9.87;100.00
70544;BME280;58097;48.364;-1.224;2023-10-31T06:11:35;98390.06;;;9.83;100.00
70544;BME280;58097;48.364;-1.224;2023-10-31T06:14:01;98387.47;;;9.82;100.00
70544;BME280;58097;48.364;-1.224;2023-10-31T06:16:26;98396.16;;;9.79;100.00
70544;BME280;58097;48.364;-1.224;2023-10-31T06:18:51;98395.47;;;9.77;100.00
70544;BME280;58097;48.364;-1.224;2023-10-31T06:21:17;98398.25;;;9.77;100.00
70544;BME280;58097;48.364;-1.224;2023-10-31T06:23:42;98403.38;;;9.80;100.00
70544;BME280;58097;48.364;-1.224;2023-10-31T06:26:10;98393.38;;;9.79;100.00
70544;BME280;58097;48.364;-1.224;2023-10-31T06:28:35;98398.72;;;9.80;100.00
70544;BME280;58097;48.364;-1.224;2023-10-31T06:31:02;98403.38;;;9.80;100.00
70544;BME280;58097;48.364;-1.224;2023-10-31T06:33:28;98411.25;;;9.83;100.00
70544;BME280;58097;48.364;-1.224;2023-10-31T06:35:53;98412.69;;;9.79;100.00
70544;BME280;58097;48.364;-1.224;2023-10-31T06:38:19;98424.78;;;9.78;100.00
70544;BME280;58097;48.364;-1.224;2023-10-31T06:40:45;98432.41;;;9.76;100.00
70544;BME280;58097;48.364;-1.224;2023-10-31T06:43:10;98428.59;;;9.77;100.00
70544;BME280;58097;48.364;-1.224;2023-10-31T06:45:36;98434.97;;;9.77;100.00
70544;BME280;58097;48.364;-1.224;2023-10-31T06:48:02;98437.13;;;9.82;100.00
70544;BME280;58097;48.364;-1.224;2023-10-31T06:50:27;98442.19;;;9.78;100.00
70544;BME280;58097;48.364;-1.224;2023-10-31T06:52:53;98449.81;;;9.76;100.00
70544;BME280;58097;48.364;-1.224;2023-10-31T06:55:18;98450.66;;;9.77;100.00
70544;BME280;58097;48.364;-1.224;2023-10-31T06:57:43;98453.03;;;9.80;100.00
70544;BME280;58097;48.364;-1.224;2023-10-31T07:00:10;98458.00;;;9.84;100.00
70544;BME280;58097;48.364;-1.224;2023-10-31T07:02:36;98463.50;;;9.84;100.00
70544;BME280;58097;48.364;-1.224;2023-10-31T07:05:02;98471.59;;;9.86;100.00
70544;BME280;58097;48.364;-1.224;2023-10-31T07:07:28;98469.19;;;9.83;100.00
70544;BME280;58097;48.364;-1.224;2023-10-31T07:09:54;98469.88;;;9.85;100.00
70544;BME280;58097;48.364;-1.224;2023-10-31T07:12:19;98479.88;;;9.86;100.00
70544;BME280;58097;48.364;-1.224;2023-10-31T07:14:45;98492.63;;;9.87;100.00
70544;BME280;58097;48.364;-1.224;2023-10-31T07:17:10;98499.94;;;9.94;100.00
70544;BME280;58097;48.364;-1.224;2023-10-31T07:19:35;98496.13;;;9.96;100.00
70544;BME280;58097;48.364;-1.224;2023-10-31T07:22:01;98496.59;;;9.99;100.00
70544;BME280;58097;48.364;-1.224;2023-10-31T07:24:27;98498.97;;;10.02;100.00
70544;BME280;58097;48.364;-1.224;2023-10-31T07:26:53;98507.91;;;10.04;100.00
70544;BME280;58097;48.364;-1.224;2023-10-31T07:29:19;98513.50;;;10.11;100.00
70544;BME280;58097;48.364;-1.224;2023-10-31T07:31:44;98511.25;;;10.14;100.00
70544;BME280;58097;48.364;-1.224;2023-10-31T07:34:09;98514.88;;;10.15;100.00
70544;BME280;58097;48.364;-1.224;2023-10-31T07:36:36;98517.81;;;10.13;100.00
70544;BME280;58097;48.364;-1.224;2023-10-31T07:39:02;98520.38;;;10.15;100.00
70544;BME280;58097;48.364;-1.224;2023-10-31T07:41:29;98525.91;;;10.15;100.00
70544;BME280;58097;48.364;-1.224;2023-10-31T07:43:54;98533.59;;;10.19;100.00
70544;BME280;58097;48.364;-1.224;2023-10-31T07:46:20;98538.56;;;10.24;100.00
70544;BME280;58097;48.364;-1.224;2023-10-31T07:48:46;98533.53;;;10.28;100.00
70544;BME280;58097;48.364;-1.224;2023-10-31T07:51:11;98546.47;;;10.27;100.00
70544;BME280;58097;48.364;-1.224;2023-10-31T07:53:36;98545.63;;;10.27;100.00
70544;BME280;58097;48.364;-1.224;2023-10-31T07:56:02;98549.63;;;10.24;100.00
70544;BME280;58097;48.364;-1.224;2023-10-31T07:58:27;98551.91;;;10.20;100.00
70544;BME280;58097;48.364;-1.224;2023-10-31T08:00:53;98555.22;;;10.16;100.00
70544;BME280;58097;48.364;-1.224;2023-10-31T08:03:18;98561.13;;;10.13;100.00
70544;BME280;58097;48.364;-1.224;2023-10-31T08:05:43;98553.31;;;10.16;100.00
70544;BME280;58097;48.364;-1.224;2023-10-31T08:08:08;98565.97;;;10.11;100.00
70544;BME280;58097;48.364;-1.224;2023-10-31T08:10:34;98564.06;;;10.11;100.00
70544;BME280;58097;48.364;-1.224;2023-10-31T08:13:00;98566.47;;;10.14;100.00
70544;BME280;58097;48.364;-1.224;2023-10-31T08:15:25;98561.72;;;10.23;100.00
70544;BME280;58097;48.364;-1.224;2023-10-31T08:17:51;98567.59;;;10.35;100.00
70544;BME280;58097;48.364;-1.224;2023-10-31T08:20:16;98570.63;;;10.40;100.00
70544;BME280;58097;48.364;-1.224;2023-10-31T08:22:42;98576.00;;;10.41;100.00
70544;BME280;58097;48.364;-1.224;2023-10-31T08:25:10;98582.53;;;10.40;100.00
70544;BME280;58097;48.364;-1.224;2023-10-31T08:27:35;98586.44;;;10.46;100.00
70544;BME280;58097;48.364;-1.224;2023-10-31T08:30:01;98588.63;;;10.50;100.00
70544;BME280;58097;48.364;-1.224;2023-10-31T08:32:27;98581.47;;;10.56;100.00
70544;BME280;58097;48.364;-1.224;2023-10-31T08:34:52;98591.66;;;10.70;100.00
70544;BME280;58097;48.364;-1.224;2023-10-31T08:37:19;98592.25;;;10.87;100.00
70544;BME280;58097;48.364;-1.224;2023-10-31T08:39:44;98592.88;;;11.04;100.00
70544;BME280;58097;48.364;-1.224;2023-10-31T08:42:10;98604.91;;;11.17;100.00
70544;BME280;58097;48.364;-1.224;2023-10-31T08:44:35;98601.75;;;11.21;100.00
70544;BME280;58097;48.364;-1.224;2023-10-31T08:47:03;98605.25;;;11.29;100.00
70544;BME280;58097;48.364;-1.224;2023-10-31T08:49:28;98604.97;;;11.45;100.00
70544;BME280;58097;48.364;-1.224;2023-10-31T08:51:53;98606.28;;;11.49;100.00
70544;BME280;58097;48.364;-1.224;2023-10-31T08:54:19;98611.22;;;11.54;100.00
70544;BME280;58097;48.364;-1.224;2023-10-31T08:56:44;98613.28;;;11.67;100.00
70544;BME280;58097;48.364;-1.224;2023-10-31T08:59:09;98621.22;;;11.76;100.00
70544;BME280;58097;48.364;-1.224;2023-10-31T09:01:35;98622.16;;;11.84;100.00
70544;BME280;58097;48.364;-1.224;2023-10-31T09:04:00;98630.53;;;11.90;100.00
70544;BME280;58097;48.364;-1.224;2023-10-31T09:06:26;98625.41;;;11.87;100.00
70544;BME280;58097;48.364;-1.224;2023-10-31T09:08:51;98630.72;;;11.89;100.00
70544;BME280;58097;48.364;-1.224;2023-10-31T09:11:16;98631.84;;;11.94;100.00
70544;BME280;58097;48.364;-1.224;2023-10-31T09:13:42;98622.34;;;12.10;100.00
70544;BME280;58097;48.364;-1.224;2023-10-31T09:16:07;98628.84;;;12.24;100.00
70544;BME280;58097;48.364;-1.224;2023-10-31T09:18:33;98632.78;;;12.43;100.00
70544;BME280;58097;48.364;-1.224;2023-10-31T09:20:59;98640.34;;;12.55;100.00
70544;BME280;58097;48.364;-1.224;2023-10-31T09:23:25;98633.44;;;12.79;100.00
70544;BME280;58097;48.364;-1.224;2023-10-31T09:25:50;98634.75;;;12.90;100.00
70544;BME280;58097;48.364;-1.224;2023-10-31T09:28:15;98642.44;;;12.94;100.00
70544;BME280;58097;48.364;-1.224;2023-10-31T09:30:41;98642.06;;;13.11;100.00
70544;BME280;58097;48.364;-1.224;2023-10-31T09:33:06;98644.06;;;13.23;100.00
70544;BME280;58097;48.364;-1.224;2023-10-31T09:35:32;98651.34;;;13.31;100.00
70544;BME280;58097;48.364;-1.224;2023-10-31T09:37:57;98647.72;;;13.30;100.00
70544;BME280;58097;48.364;-1.224;2023-10-31T09:40:23;98649.22;;;13.33;100.00
70544;BME280;58097;48.364;-1.224;2023-10-31T09:42:48;98655.00;;;13.51;100.00
70544;BME280;58097;48.364;-1.224;2023-10-31T09:45:17;98654.19;;;13.64;100.00
70544;BME280;58097;48.364;-1.224;2023-10-31T09:47:42;98660.38;;;13.59;100.00
70544;BME280;58097;48.364;-1.224;2023-10-31T09:50:08;98659.06;;;13.55;100.00
70544;BME280;58097;48.364;-1.224;2023-10-31T09:52:35;98660.56;;;13.51;100.00
70544;BME280;58097;48.364;-1.224;2023-10-31T09:55:02;98663.78;;;13.55;100.00
70544;BME280;58097;48.364;-1.224;2023-10-31T09:57:28;98663.16;;;13.59;100.00
70544;BME280;58097;48.364;-1.224;2023-10-31T09:59:53;98666.78;;;13.60;100.00
70544;BME280;58097;48.364;-1.224;2023-10-31T10:02:19;98661.47;;;13.72;100.00
70544;BME280;58097;48.364;-1.224;2023-10-31T10:04:44;98667.22;;;13.77;100.00
70544;BME280;58097;48.364;-1.224;2023-10-31T10:07:13;98664.03;;;13.86;100.00
70544;BME280;58097;48.364;-1.224;2023-10-31T10:09:40;98679.00;;;13.92;100.00
70544;BME280;58097;48.364;-1.224;2023-10-31T10:12:06;98685.41;;;13.99;100.00
70544;BME280;58097;48.364;-1.224;2023-10-31T10:14:32;98696.53;;;13.92;100.00
70544;BME280;58097;48.364;-1.224;2023-10-31T10:16:57;98690.75;;;13.94;100.00
70544;BME280;58097;48.364;-1.224;2023-10-31T10:19:23;98691.38;;;13.89;100.00
70544;BME280;58097;48.364;-1.224;2023-10-31T10:21:50;98683.47;;;14.00;100.00
70544;BME280;58097;48.364;-1.224;2023-10-31T10:24:17;98686.25;;;14.13;100.00
70544;BME280;58097;48.364;-1.224;2023-10-31T10:26:43;98684.34;;;14.20;100.00
70544;BME280;58097;48.364;-1.224;2023-10-31T10:29:08;98690.09;;;14.12;100.00
70544;BME280;58097;48.364;-1.224;2023-10-31T10:31:34;98691.81;;;14.13;100.00
70544;BME280;58097;48.364;-1.224;2023-10-31T10:33:59;98685.63;;;14.24;100.00
70544;BME280;58097;48.364;-1.224;2023-10-31T10:36:27;98683.50;;;14.26;100.00
70544;BME280;58097;48.364;-1.224;2023-10-31T10:38:56;98678.78;;;14.33;100.00
70544;BME280;58097;48.364;-1.224;2023-10-31T10:41:25;98671.72;;;14.37;100.00
70544;BME280;58097;48.364;-1.224;2023-10-31T10:43:55;98688.38;;;14.37;100.00
70544;BME280;58097;48.364;-1.224;2023-10-31T10:46:24;98685.59;;;14.37;100.00
70544;BME280;58097;48.364;-1.224;2023-10-31T10:48:55;98693.72;;;14.39;100.00
70544;BME280;58097;48.364;-1.224;2023-10-31T10:51:29;98678.16;;;14.51;100.00
70544;BME280;58097;48.364;-1.224;2023-10-31T10:54:18;98689.47;;;14.49;100.00
70544;BME280;58097;48.364;-1.224;2023-10-31T10:56:54;98690.31;;;14.63;100.00
70544;BME280;58097;48.364;-1.224;2023-10-31T10:59:34;98687.97;;;14.60;100.00
70544;BME280;58097;48.364;-1.224;2023-10-31T11:02:06;98694.78;;;14.71;100.00
70544;BME280;58097;48.364;-1.224;2023-10-31T11:04:32;98696.69;;;14.70;100.00
70544;BME280;58097;48.364;-1.224;2023-10-31T11:06:58;98689.44;;;14.76;100.00
70544;BME280;58097;48.364;-1.224;2023-10-31T11:09:24;98690.09;;;14.65;100.00
70544;BME280;58097;48.364;-1.224;2023-10-31T11:11:50;98690.28;;;14.70;100.00
70544;BME280;58097;48.364;-1.224;2023-10-31T11:14:17;98689.44;;;14.76;100.00
70544;BME280;58097;48.364;-1.224;2023-10-31T11:16:54;98689.84;;;14.73;100.00
70544;BME280;58097;48.364;-1.224;2023-10-31T11:19:22;98705.03;;;14.77;100.00
70544;BME280;58097;48.364;-1.224;2023-10-31T11:22:08;98695.63;;;14.71;100.00
70544;BME280;58097;48.364;-1.224;2023-10-31T11:24:37;98695.22;;;14.68;100.00
70544;BME280;58097;48.364;-1.224;2023-10-31T11:27:04;98693.94;;;14.77;100.00
70544;BME280;58097;48.364;-1.224;2023-10-31T11:29:31;98695.41;;;14.73;100.00
70544;BME280;58097;48.364;-1.224;2023-10-31T11:31:56;98695.41;;;14.73;100.00
70544;BME280;58097;48.364;-1.224;2023-10-31T11:34:22;98695.00;;;14.76;100.00
70544;BME280;58097;48.364;-1.224;2023-10-31T11:36:48;98689.00;;;14.72;100.00
70544;BME280;58097;48.364;-1.224;2023-10-31T11:39:15;98689.22;;;14.77;100.00
70544;BME280;58097;48.364;-1.224;2023-10-31T11:41:48;98685.78;;;14.82;100.00
70544;BME280;58097;48.364;-1.224;2023-10-31T11:44:15;98687.91;;;14.73;100.00
70544;BME280;58097;48.364;-1.224;2023-10-31T11:46:40;98695.19;;;14.74;100.00
70544;BME280;58097;48.364;-1.224;2023-10-31T11:49:06;98689.00;;;14.79;100.00
70544;BME280;58097;48.364;-1.224;2023-10-31T11:51:32;98686.00;;;14.74;100.00
70544;BME280;58097;48.364;-1.224;2023-10-31T11:53:59;98680.00;;;14.70;100.00
70544;BME280;58097;48.364;-1.224;2023-10-31T11:56:25;98683.44;;;14.66;100.00
70544;BME280;58097;48.364;-1.224;2023-10-31T11:59:17;98676.59;;;14.68;100.00
70544;BME280;58097;48.364;-1.224;2023-10-31T12:01:48;98673.59;;;14.70;100.00
70544;BME280;58097;48.364;-1.224;2023-10-31T12:04:31;98678.72;;;14.73;100.00
70544;BME280;58097;48.364;-1.224;2023-10-31T12:06:58;98677.88;;;14.79;100.00
70544;BME280;58097;48.364;-1.224;2023-10-31T12:09:24;98673.34;;;14.91;100.00
70544;BME280;58097;48.364;-1.224;2023-10-31T12:11:49;98670.72;;;15.03;100.00
70544;BME280;58097;48.364;-1.224;2023-10-31T12:14:18;98672.84;;;15.07;100.00
70544;BME280;58097;48.364;-1.224;2023-10-31T12:16:45;98680.94;;;15.15;100.00
70544;BME280;58097;48.364;-1.224;2023-10-31T12:19:11;98678.38;;;15.14;100.00
70544;BME280;58097;48.364;-1.224;2023-10-31T12:21:38;98692.06;;;15.15;99.74
70544;BME280;58097;48.364;-1.224;2023-10-31T12:24:09;98691.66;;;15.12;98.30
70544;BME280;58097;48.364;-1.224;2023-10-31T12:26:35;98702.16;;;15.10;99.07
70544;BME280;58097;48.364;-1.224;2023-10-31T12:29:14;98697.66;;;15.09;99.29
70544;BME280;58097;48.364;-1.224;2023-10-31T12:31:42;98688.03;;;15.11;98.91
70544;BME280;58097;48.364;-1.224;2023-10-31T12:34:09;98696.81;;;15.08;98.96